Time;durP1;ratioP1;P1;durP2;ratioP2;P2;SDS_P1;SDS_P2;PMS_P1;PMS_P2;Temp;Humidity;BMP_temperature;BMP_pressure;BME280_temperature;BME280_humidity;BME280_pressure;Samples;Min_cycle;Max_cycle;Signal;HPM_P1;HPM_P2
2022/03/24 00:02:39;;;;;;;28.23;16.70;;;8.00;99.90;;;;;;5017185;28;20200;-76
2022/03/24 00:05:23;;;;;;;28.37;16.13;;;8.00;99.90;;;;;;5026891;28;20234;-76
2022/03/24 00:08:08;;;;;;;32.57;17.07;;;8.00;99.90;;;;;;5025997;28;20196;-76
2022/03/24 00:10:52;;;;;;;29.27;15.93;;;8.00;99.90;;;;;;5027540;28;20219;-76
2022/03/24 00:13:37;;;;;;;25.90;15.87;;;8.00;99.90;;;;;;5025312;28;20250;-76
2022/03/24 00:16:21;;;;;;;26.03;16.50;;;7.90;99.90;;;;;;5029153;28;20206;-76
2022/03/24 00:19:05;;;;;;;26.77;16.23;;;7.90;99.90;;;;;;5041739;28;20674;-76
2022/03/24 00:21:50;;;;;;;27.93;16.90;;;7.80;99.90;;;;;;5025341;28;20268;-76
2022/03/24 00:24:34;;;;;;;31.50;17.37;;;7.80;99.90;;;;;;5020519;28;20258;-75
2022/03/24 00:27:18;;;;;;;32.33;16.50;;;7.80;99.90;;;;;;5028457;28;20187;-75
2022/03/24 00:30:06;;;;;;;28.50;16.37;;;7.70;99.90;;;;;;5029476;28;20265;-75
2022/03/24 00:32:50;;;;;;;27.63;16.13;;;7.80;99.90;;;;;;5029398;28;20315;-74
2022/03/24 00:35:34;;;;;;;29.23;16.97;;;7.70;99.90;;;;;;5025742;28;20243;-76
2022/03/24 00:38:19;;;;;;;26.50;16.30;;;7.70;99.90;;;;;;5019570;28;20242;-75
2022/03/24 00:41:04;;;;;;;32.73;17.67;;;7.70;99.90;;;;;;5025296;28;20274;-76
2022/03/24 00:43:49;;;;;;;26.73;16.97;;;7.70;99.90;;;;;;5029519;28;20206;-75
2022/03/24 00:46:33;;;;;;;30.33;16.60;;;7.60;99.90;;;;;;5027450;28;20647;-76
2022/03/24 00:49:17;;;;;;;27.97;17.60;;;7.60;99.90;;;;;;5031472;28;20214;-77
2022/03/24 00:52:02;;;;;;;29.47;18.50;;;7.60;99.90;;;;;;5012159;28;20237;-76
2022/03/24 00:54:46;;;;;;;35.87;17.50;;;7.50;99.90;;;;;;5026203;28;20231;-76
2022/03/24 00:57:30;;;;;;;29.37;17.87;;;7.50;99.90;;;;;;5026389;28;20198;-76
2022/03/24 01:00:15;;;;;;;29.17;16.50;;;7.50;99.90;;;;;;5025621;28;20226;-76
2022/03/24 01:02:59;;;;;;;29.73;18.07;;;7.50;99.90;;;;;;5025986;28;20202;-76
2022/03/24 01:05:43;;;;;;;35.27;18.07;;;7.50;99.90;;;;;;5033317;28;20666;-76
2022/03/24 01:08:28;;;;;;;29.07;17.90;;;7.40;99.90;;;;;;5025585;28;20318;-75
2022/03/24 01:11:12;;;;;;;28.97;17.33;;;7.40;99.90;;;;;;5029201;28;20277;-75
2022/03/24 01:13:57;;;;;;;28.93;18.43;;;7.40;99.90;;;;;;5030184;28;20194;-75
2022/03/24 01:16:43;;;;;;;29.43;18.20;;;7.30;99.90;;;;;;5022331;28;20199;-75
2022/03/24 01:19:27;;;;;;;30.60;17.67;;;7.30;99.90;;;;;;5031344;28;20218;-76
2022/03/24 01:22:12;;;;;;;30.97;17.87;;;7.30;99.90;;;;;;5024753;28;20318;-76
2022/03/24 01:24:56;;;;;;;31.67;17.17;;;7.20;99.90;;;;;;5025586;28;20228;-77
2022/03/24 01:27:41;;;;;;;30.70;17.43;;;7.20;99.90;;;;;;5022498;28;20188;-77
2022/03/24 01:30:26;;;;;;;28.20;17.83;;;7.10;99.90;;;;;;5032652;28;20215;-76
2022/03/24 01:33:10;;;;;;;29.30;16.93;;;7.10;99.90;;;;;;5025595;28;20241;-76
2022/03/24 01:35:55;;;;;;;28.10;17.73;;;7.00;99.90;;;;;;5022374;28;20212;-76
2022/03/24 01:38:39;;;;;;;33.93;17.53;;;7.00;99.90;;;;;;5027663;28;20244;-76
2022/03/24 01:41:24;;;;;;;26.57;17.17;;;7.00;99.90;;;;;;5025449;28;20275;-76
2022/03/24 01:44:13;;;;;;;30.50;17.70;;;6.90;99.90;;;;;;5030828;28;20210;-78
2022/03/24 01:47:05;;;;;;;31.83;17.90;;;6.90;99.90;;;;;;5027661;28;20258;-77
2022/03/24 01:49:50;;;;;;;30.60;18.53;;;6.80;99.90;;;;;;5031355;28;20724;-76
2022/03/24 01:52:35;;;;;;;29.57;17.70;;;6.80;99.90;;;;;;5029700;28;20183;-77
2022/03/24 01:55:20;;;;;;;31.37;17.90;;;6.80;99.90;;;;;;5025115;28;20262;-76
2022/03/24 01:58:05;;;;;;;32.83;18.07;;;6.80;99.90;;;;;;5035069;28;20191;-77
2022/03/24 02:00:51;;;;;;;28.87;18.23;;;6.70;99.90;;;;;;5030094;28;20219;-76
2022/03/24 02:03:36;;;;;;;33.20;18.43;;;6.70;99.90;;;;;;5029789;28;20203;-77
2022/03/24 02:06:21;;;;;;;31.93;17.57;;;6.70;99.90;;;;;;5033900;28;20198;-76
2022/03/24 02:09:06;;;;;;;29.63;17.97;;;6.70;99.90;;;;;;5033683;28;20222;-76
2022/03/24 02:11:51;;;;;;;29.03;18.43;;;6.70;99.90;;;;;;5021284;28;20188;-76
2022/03/24 02:14:36;;;;;;;33.43;18.53;;;6.60;99.90;;;;;;5014396;28;20219;-76
2022/03/24 02:17:20;;;;;;;27.67;17.87;;;6.50;99.90;;;;;;5036429;28;20720;-76
2022/03/24 02:20:09;;;;;;;27.27;17.60;;;6.50;99.90;;;;;;5040317;28;20270;-76
2022/03/24 02:22:54;;;;;;;29.50;18.20;;;6.50;99.90;;;;;;5033392;28;20605;-76
2022/03/24 02:25:40;;;;;;;32.53;18.47;;;6.40;99.90;;;;;;5021832;28;20253;-75
2022/03/24 02:28:24;;;;;;;28.83;17.83;;;6.40;99.90;;;;;;5054194;28;20170;-76
2022/03/24 02:31:09;;;;;;;31.87;17.43;;;6.40;99.90;;;;;;5043074;28;20219;-76
2022/03/24 02:34:37;;;;;;;34.67;18.17;;;6.30;99.90;;;;;;5033599;28;20199;-76
2022/03/24 02:36:58;;;;;;;31.80;18.30;;;6.30;99.90;;;;;;5034376;28;20198;-76
2022/03/24 02:39:44;;;;;;;35.83;19.00;;;6.30;99.90;;;;;;5033728;28;20238;-76
2022/03/24 02:42:30;;;;;;;32.27;19.03;;;6.20;99.90;;;;;;5030793;28;20194;-76
2022/03/24 02:45:14;;;;;;;32.80;19.47;;;6.20;99.90;;;;;;5036938;28;20594;-75
2022/03/24 02:47:59;;;;;;;31.83;18.47;;;6.20;99.90;;;;;;5028579;28;20253;-76
2022/03/24 02:50:43;;;;;;;27.63;17.50;;;6.20;99.90;;;;;;5032831;28;20256;-75
2022/03/24 02:53:27;;;;;;;28.50;18.90;;;6.20;99.90;;;;;;5030685;28;20199;-76
2022/03/24 02:56:11;;;;;;;30.17;17.77;;;6.20;99.90;;;;;;5029973;28;20191;-76
2022/03/24 02:58:56;;;;;;;32.30;18.80;;;6.10;99.90;;;;;;5046821;28;20284;-75
2022/03/24 03:01:42;;;;;;;32.27;18.70;;;6.10;99.90;;;;;;5028069;28;20239;-76
2022/03/24 03:04:34;;;;;;;33.53;18.93;;;6.10;99.90;;;;;;5028749;28;20237;-76
2022/03/24 03:07:22;;;;;;;30.53;18.87;;;6.00;99.90;;;;;;5053182;28;20194;-76
2022/03/24 03:10:07;;;;;;;29.37;17.93;;;6.00;99.90;;;;;;5052916;28;20261;-76
2022/03/24 03:12:51;;;;;;;31.40;18.57;;;6.00;99.90;;;;;;5053015;28;20194;-76
2022/03/24 03:15:35;;;;;;;30.13;18.13;;;6.00;99.90;;;;;;5033501;28;20321;-76
2022/03/24 03:18:19;;;;;;;35.87;18.90;;;5.90;99.90;;;;;;5032975;28;20625;-75
2022/03/24 03:21:03;;;;;;;29.50;18.50;;;5.90;99.90;;;;;;5036117;28;20592;-75
2022/03/24 03:23:48;;;;;;;29.60;19.10;;;5.90;99.90;;;;;;5029213;28;20208;-75
2022/03/24 03:26:32;;;;;;;31.10;18.53;;;5.80;99.90;;;;;;5031239;28;20241;-76
2022/03/24 03:29:17;;;;;;;25.73;16.87;;;5.80;99.90;;;;;;5033747;28;20214;-75
2022/03/24 03:32:02;;;;;;;31.07;18.23;;;5.80;99.90;;;;;;5030528;28;20680;-75
2022/03/24 03:34:48;;;;;;;34.93;19.97;;;5.70;99.90;;;;;;5034702;28;20198;-76
2022/03/24 03:37:33;;;;;;;33.60;19.20;;;5.70;99.90;;;;;;5032529;28;20187;-76
2022/03/24 03:40:17;;;;;;;31.03;18.93;;;5.70;99.90;;;;;;5032338;28;20262;-75
2022/03/24 03:43:01;;;;;;;32.03;18.73;;;5.70;99.90;;;;;;5033154;28;20214;-76
2022/03/24 03:45:46;;;;;;;31.80;19.23;;;5.70;99.90;;;;;;5037223;28;20193;-76
2022/03/24 03:48:31;;;;;;;32.97;19.40;;;5.70;99.90;;;;;;5026633;28;20190;-75
2022/03/24 03:51:15;;;;;;;32.77;19.80;;;5.70;99.90;;;;;;5032193;28;20219;-75
2022/03/24 03:53:59;;;;;;;30.13;19.33;;;5.60;99.90;;;;;;5040375;28;20245;-76
2022/03/24 03:56:43;;;;;;;33.40;19.43;;;5.60;99.90;;;;;;5023876;28;20187;-75
2022/03/24 03:59:27;;;;;;;36.37;20.00;;;5.60;99.90;;;;;;5032297;28;20613;-75
2022/03/24 04:02:11;;;;;;;35.47;19.73;;;5.60;99.90;;;;;;5024495;28;20198;-75
2022/03/24 04:04:56;;;;;;;37.63;18.40;;;5.60;99.90;;;;;;5025923;28;20222;-76
2022/03/24 04:07:40;;;;;;;31.57;19.30;;;5.50;99.90;;;;;;5040166;28;20268;-76
2022/03/24 04:10:27;;;;;;;33.77;19.50;;;5.50;99.90;;;;;;5026428;28;20347;-77
2022/03/24 04:13:11;;;;;;;29.23;18.53;;;5.50;99.90;;;;;;5049319;28;20214;-75
2022/03/24 04:15:56;;;;;;;32.07;19.60;;;5.50;99.90;;;;;;5031441;28;20194;-75
2022/03/24 04:18:46;;;;;;;33.20;18.83;;;5.40;99.90;;;;;;5031772;28;20238;-76
2022/03/24 04:21:31;;;;;;;33.17;18.93;;;5.40;99.90;;;;;;5033030;28;20207;-75
2022/03/24 04:24:15;;;;;;;33.23;18.57;;;5.40;99.90;;;;;;5031383;28;20264;-75
2022/03/24 04:26:59;;;;;;;30.57;19.33;;;5.30;99.90;;;;;;5032359;28;20187;-76
2022/03/24 04:29:44;;;;;;;32.87;19.07;;;5.30;99.90;;;;;;5046536;28;20301;-75
2022/03/24 04:32:30;;;;;;;31.37;18.70;;;5.30;99.90;;;;;;5032474;28;20706;-76
2022/03/24 04:35:15;;;;;;;33.50;19.67;;;5.30;99.90;;;;;;5031507;28;20249;-76
2022/03/24 04:37:59;;;;;;;32.33;19.83;;;5.30;99.90;;;;;;5031260;28;20207;-75
2022/03/24 04:40:43;;;;;;;32.07;19.33;;;5.20;99.90;;;;;;5031436;28;20215;-76
2022/03/24 04:43:28;;;;;;;30.90;19.03;;;5.20;99.90;;;;;;5030511;28;20655;-75
2022/03/24 04:46:12;;;;;;;31.53;18.23;;;5.20;99.90;;;;;;5030448;28;20201;-75
2022/03/24 04:48:56;;;;;;;33.87;19.87;;;5.20;99.90;;;;;;5031354;28;20229;-75
2022/03/24 04:51:41;;;;;;;34.50;19.77;;;5.20;99.90;;;;;;5024513;28;20198;-76
2022/03/24 04:54:25;;;;;;;34.50;19.43;;;5.10;99.90;;;;;;5037765;28;20199;-75
2022/03/24 04:57:09;;;;;;;30.87;17.60;;;5.10;99.90;;;;;;5011160;28;20195;-75
2022/03/24 04:59:54;;;;;;;35.23;19.33;;;5.10;99.90;;;;;;5024668;28;20224;-76
2022/03/24 05:02:39;;;;;;;35.63;20.33;;;5.10;99.90;;;;;;5030060;28;20244;-75
2022/03/24 05:05:23;;;;;;;33.53;19.13;;;5.00;99.90;;;;;;5032883;28;20305;-74
2022/03/24 05:08:07;;;;;;;32.97;18.77;;;5.00;99.90;;;;;;5030936;28;20183;-75
2022/03/24 05:10:51;;;;;;;32.13;18.33;;;5.00;99.90;;;;;;5030709;28;20214;-77
2022/03/24 05:13:36;;;;;;;34.90;18.60;;;4.90;99.90;;;;;;5031497;28;20194;-77
2022/03/24 05:16:20;;;;;;;34.83;18.63;;;4.90;99.90;;;;;;5012055;28;20191;-76
2022/03/24 05:19:05;;;;;;;32.77;19.17;;;4.90;99.90;;;;;;5029961;28;20181;-76
2022/03/24 05:21:49;;;;;;;34.73;19.67;;;4.90;99.90;;;;;;5032480;28;20200;-76
2022/03/24 05:24:33;;;;;;;31.70;19.10;;;4.80;99.90;;;;;;5029388;28;20252;-76
2022/03/24 05:27:17;;;;;;;29.50;18.43;;;4.80;99.90;;;;;;5029383;28;20205;-77
2022/03/24 05:30:03;;;;;;;36.77;19.50;;;4.80;99.90;;;;;;5030428;28;20222;-76
2022/03/24 05:32:47;;;;;;;32.43;19.53;;;4.70;99.90;;;;;;5031496;28;20193;-76
2022/03/24 05:35:35;;;;;;;40.27;21.17;;;4.70;99.90;;;;;;5016737;28;20226;-76
2022/03/24 05:38:19;;;;;;;36.17;19.30;;;4.70;99.90;;;;;;5043609;28;20195;-76
2022/03/24 05:41:04;;;;;;;31.07;19.20;;;4.80;99.90;;;;;;5042305;28;20219;-76
2022/03/24 05:44:10;;;;;;;33.70;19.97;;;4.70;99.90;;;;;;5029946;28;20230;-76
2022/03/24 05:46:54;;;;;;;35.40;20.20;;;4.80;99.90;;;;;;5027039;28;20201;-76
2022/03/24 05:49:38;;;;;;;29.33;19.40;;;4.70;99.90;;;;;;5019038;28;20285;-75
2022/03/24 05:52:23;;;;;;;36.00;19.93;;;4.70;99.90;;;;;;5030232;28;20214;-76
2022/03/24 05:55:09;;;;;;;34.77;19.50;;;4.70;99.90;;;;;;5028453;28;20257;-77
2022/03/24 05:57:53;;;;;;;34.63;20.03;;;4.70;99.90;;;;;;5030213;28;20186;-77
2022/03/24 06:00:38;;;;;;;34.27;19.10;;;4.70;99.90;;;;;;5023992;28;20273;-76
2022/03/24 06:03:23;;;;;;;38.37;19.80;;;4.70;99.90;;;;;;5023140;28;20309;-76
2022/03/24 06:06:08;;;;;;;30.17;19.33;;;4.70;99.90;;;;;;5033067;28;21060;-79
2022/03/24 06:08:54;;;;;;;36.70;20.73;;;4.70;99.90;;;;;;5033559;28;20209;-79
2022/03/24 06:11:39;;;;;;;36.53;20.27;;;4.80;99.90;;;;;;5045452;28;20218;-79
2022/03/24 06:14:25;;;;;;;34.40;19.30;;;4.80;99.90;;;;;;5034581;28;20186;-80
2022/03/24 06:17:09;;;;;;;35.17;19.03;;;4.80;99.90;;;;;;5035220;28;20254;-76
2022/03/24 06:19:54;;;;;;;32.43;19.10;;;4.80;99.90;;;;;;5020649;28;20302;-76
2022/03/24 06:22:53;;;;;;;36.23;19.47;;;4.80;99.90;;;;;;5040114;28;20206;-76
2022/03/24 06:25:40;;;;;;;40.03;20.37;;;4.80;99.90;;;;;;5030923;28;20275;-76
2022/03/24 06:28:25;;;;;;;34.50;19.20;;;4.80;99.90;;;;;;5033854;28;20218;-76
2022/03/24 06:31:09;;;;;;;36.33;19.80;;;4.80;99.90;;;;;;5021742;28;20218;-76
2022/03/24 06:33:53;;;;;;;33.47;19.87;;;4.90;99.90;;;;;;5028270;28;20191;-76
2022/03/24 06:36:37;;;;;;;33.33;19.23;;;4.90;99.90;;;;;;5031349;28;20268;-75
2022/03/24 06:39:22;;;;;;;34.70;19.00;;;4.90;99.90;;;;;;5049396;28;20265;-77
2022/03/24 06:42:06;;;;;;;39.10;19.67;;;5.00;99.90;;;;;;5033029;28;20187;-76
2022/03/24 06:44:51;;;;;;;34.43;19.93;;;5.00;99.90;;;;;;5049697;28;20226;-75
2022/03/24 06:47:35;;;;;;;35.03;19.77;;;5.10;99.90;;;;;;5049150;28;20229;-75
2022/03/24 06:50:19;;;;;;;36.23;19.73;;;5.10;99.90;;;;;;5041982;28;20211;-76
2022/03/24 06:53:04;;;;;;;33.50;19.63;;;5.10;99.90;;;;;;5035140;28;20195;-77
2022/03/24 06:55:48;;;;;;;32.30;18.93;;;5.20;99.90;;;;;;5030470;28;20253;-77
2022/03/24 06:58:32;;;;;;;32.80;20.10;;;5.20;99.90;;;;;;5014902;28;20183;-77
2022/03/24 07:01:18;;;;;;;42.20;19.70;;;5.30;99.90;;;;;;5046528;28;20218;-77
2022/03/24 07:04:02;;;;;;;37.00;19.77;;;5.30;99.90;;;;;;5046490;28;20209;-75
2022/03/24 07:06:47;;;;;;;37.47;19.97;;;5.40;99.90;;;;;;5047954;28;20306;-76
2022/03/24 07:09:31;;;;;;;33.97;20.33;;;5.50;99.90;;;;;;5045685;28;20281;-76
2022/03/24 07:12:19;;;;;;;33.33;19.37;;;5.50;99.90;;;;;;5033492;28;20191;-77
2022/03/24 07:15:08;;;;;;;37.10;19.77;;;5.60;99.90;;;;;;5046928;28;20249;-76
2022/03/24 07:17:52;;;;;;;32.73;19.77;;;5.60;99.90;;;;;;5039845;28;20195;-74
2022/03/24 07:20:37;;;;;;;33.40;19.47;;;5.70;99.90;;;;;;5027920;28;20266;-76
2022/03/24 07:23:21;;;;;;;34.47;19.33;;;5.70;99.90;;;;;;5033003;28;20242;-76
2022/03/24 07:26:06;;;;;;;34.47;18.03;;;5.90;99.90;;;;;;5033985;28;20183;-76
2022/03/24 07:28:50;;;;;;;33.27;19.23;;;5.90;99.90;;;;;;5033973;28;20258;-75
2022/03/24 07:31:36;;;;;;;32.20;18.67;;;6.10;99.90;;;;;;5031453;28;20187;-73
2022/03/24 07:34:20;;;;;;;35.27;17.93;;;6.20;99.90;;;;;;5032703;28;20203;-73
2022/03/24 07:37:06;;;;;;;32.63;19.17;;;6.20;99.90;;;;;;5033654;28;20225;-73
2022/03/24 07:39:50;;;;;;;29.17;17.73;;;6.20;99.90;;;;;;5032584;28;20226;-72
2022/03/24 07:42:35;;;;;;;32.40;19.20;;;6.30;99.90;;;;;;5032842;28;20203;-73
2022/03/24 07:45:20;;;;;;;30.13;17.57;;;6.40;99.90;;;;;;5037800;28;20295;-72
2022/03/24 07:48:11;;;;;;;30.57;17.90;;;6.50;99.90;;;;;;5037591;28;20231;-73
2022/03/24 07:50:57;;;;;;;31.10;17.53;;;6.50;99.90;;;;;;5033193;28;20261;-73
2022/03/24 07:53:48;;;;;;;33.50;19.37;;;6.60;99.90;;;;;;5031576;28;20194;-73
2022/03/24 07:56:32;;;;;;;32.40;19.33;;;6.80;99.90;;;;;;5021675;28;20256;-73
2022/03/24 07:59:16;;;;;;;33.33;17.93;;;6.90;99.90;;;;;;5016772;28;20282;-73
2022/03/24 08:02:01;;;;;;;31.03;19.10;;;7.00;99.90;;;;;;5031450;28;20245;-74
2022/03/24 08:04:46;;;;;;;33.60;19.50;;;7.00;99.90;;;;;;5031301;28;20278;-73
2022/03/24 08:07:30;;;;;;;30.00;18.53;;;7.20;99.90;;;;;;5044202;28;20187;-73
2022/03/24 08:10:14;;;;;;;35.17;19.07;;;7.30;99.90;;;;;;5045519;28;20207;-73
2022/03/24 08:12:58;;;;;;;31.27;18.40;;;7.30;99.90;;;;;;5033902;28;20272;-73
2022/03/24 08:15:43;;;;;;;34.73;18.37;;;7.50;99.90;;;;;;5040119;28;20227;-74
2022/03/24 08:18:27;;;;;;;32.53;18.07;;;7.60;99.90;;;;;;5025015;28;20191;-73
2022/03/24 08:21:11;;;;;;;29.27;19.47;;;7.60;99.90;;;;;;5050462;28;20211;-73
2022/03/24 08:23:55;;;;;;;31.00;18.53;;;7.70;99.90;;;;;;5039555;28;20269;-73
2022/03/24 08:26:40;;;;;;;32.47;18.63;;;7.80;99.90;;;;;;5026651;28;20208;-74
2022/03/24 08:29:24;;;;;;;28.40;18.80;;;7.90;99.90;;;;;;5032720;28;20218;-73
2022/03/24 08:32:12;;;;;;;27.47;18.33;;;8.10;99.90;;;;;;5033898;28;20659;-73
2022/03/24 08:34:56;;;;;;;34.83;19.03;;;8.10;99.90;;;;;;5034817;28;20239;-73
2022/03/24 08:37:40;;;;;;;31.33;18.60;;;8.20;99.90;;;;;;5031165;28;20306;-74
2022/03/24 08:40:25;;;;;;;35.03;19.63;;;8.30;99.90;;;;;;5031598;28;20215;-74
2022/03/24 08:43:09;;;;;;;33.37;19.27;;;8.50;99.90;;;;;;5042146;28;20230;-73
2022/03/24 08:45:53;;;;;;;31.00;18.73;;;8.60;99.90;;;;;;5036564;28;20230;-73
2022/03/24 08:48:38;;;;;;;29.00;19.03;;;8.70;99.90;;;;;;5041272;28;20183;-73
2022/03/24 08:51:22;;;;;;;29.87;18.90;;;8.70;99.90;;;;;;5023082;28;20196;-73
2022/03/24 08:54:07;;;;;;;31.13;18.53;;;8.90;99.90;;;;;;5029505;28;20192;-73
2022/03/24 08:56:52;;;;;;;29.67;18.97;;;9.00;99.90;;;;;;5040803;28;20196;-74
2022/03/24 08:59:36;;;;;;;27.80;18.37;;;9.10;99.90;;;;;;5030981;28;20274;-73
2022/03/24 09:02:21;;;;;;;28.27;18.07;;;9.20;99.90;;;;;;5034710;28;20253;-73
2022/03/24 09:05:05;;;;;;;29.10;18.70;;;9.30;99.90;;;;;;5042446;28;20288;-73
2022/03/24 09:07:50;;;;;;;27.60;17.57;;;9.50;99.90;;;;;;5019586;28;20191;-72
2022/03/24 09:10:34;;;;;;;29.43;18.83;;;9.50;99.90;;;;;;5035828;28;20234;-73
2022/03/24 09:13:19;;;;;;;29.67;18.97;;;9.70;99.90;;;;;;5033158;28;20175;-74
2022/03/24 09:16:05;;;;;;;28.23;18.07;;;9.80;99.90;;;;;;5029330;28;20179;-73
2022/03/24 09:18:49;;;;;;;30.23;18.53;;;10.00;99.90;;;;;;5043987;28;20190;-73
2022/03/24 09:21:34;;;;;;;31.13;18.30;;;10.00;99.90;;;;;;5024651;28;20198;-74
2022/03/24 09:24:18;;;;;;;37.83;18.40;;;10.10;99.90;;;;;;5039574;28;20202;-73
2022/03/24 09:27:05;;;;;;;31.47;17.97;;;10.20;99.90;;;;;;5043482;28;20263;-73
2022/03/24 09:29:50;;;;;;;27.73;17.90;;;10.50;99.90;;;;;;5029909;28;20699;-75
2022/03/24 09:32:34;;;;;;;34.40;19.63;;;10.60;99.90;;;;;;5026164;28;20307;-73
2022/03/24 09:35:19;;;;;;;29.40;18.83;;;10.70;99.90;;;;;;5025581;28;20183;-74
2022/03/24 09:38:05;;;;;;;32.90;19.10;;;10.80;99.90;;;;;;5035396;28;20210;-73
2022/03/24 09:40:51;;;;;;;30.43;18.27;;;10.90;99.90;;;;;;5029164;28;20728;-73
2022/03/24 09:43:41;;;;;;;29.27;17.20;;;10.90;99.90;;;;;;5029306;28;20179;-73
2022/03/24 09:46:27;;;;;;;29.07;17.63;;;11.00;99.90;;;;;;5034509;28;20234;-73
2022/03/24 09:49:12;;;;;;;30.87;17.97;;;11.20;99.90;;;;;;5033343;28;20191;-73
2022/03/24 09:51:56;;;;;;;30.53;18.90;;;11.40;99.90;;;;;;5032627;28;20175;-74
2022/03/24 09:54:45;;;;;;;33.37;18.23;;;11.60;99.90;;;;;;5035410;28;20198;-74
2022/03/24 09:57:30;;;;;;;27.87;17.37;;;11.80;99.90;;;;;;5029813;28;20183;-74
2022/03/24 10:00:15;;;;;;;26.67;17.47;;;11.90;99.90;;;;;;5036342;28;20257;-74
2022/03/24 10:03:08;;;;;;;29.13;18.53;;;12.00;99.90;;;;;;5033790;28;20651;-74
2022/03/24 10:05:59;;;;;;;28.47;17.83;;;12.10;99.90;;;;;;5035409;28;20700;-74
2022/03/24 10:08:50;;;;;;;26.77;16.57;;;12.20;99.90;;;;;;5030957;28;20195;-74
2022/03/24 10:11:36;;;;;;;29.07;17.57;;;12.20;99.90;;;;;;5024791;28;20218;-74
2022/03/24 10:14:22;;;;;;;30.10;18.23;;;12.40;99.90;;;;;;5034926;28;20202;-75
2022/03/24 10:17:09;;;;;;;28.03;17.37;;;12.60;99.90;;;;;;5033237;28;20612;-74
2022/03/24 10:20:01;;;;;;;24.87;17.00;;;12.70;99.90;;;;;;5037470;28;20253;-74
2022/03/24 10:23:18;;;;;;;25.33;17.77;;;12.80;99.90;;;;;;5049438;28;20668;-74
2022/03/24 10:26:06;;;;;;;27.20;16.43;;;12.80;99.90;;;;;;5006427;28;20195;-74
2022/03/24 10:28:58;;;;;;;30.60;17.07;;;12.80;99.90;;;;;;5047542;28;20234;-74
2022/03/24 10:31:43;;;;;;;30.73;17.03;;;12.90;99.90;;;;;;5046949;28;20220;-74
2022/03/24 10:34:33;;;;;;;24.77;15.97;;;13.00;99.90;;;;;;5048236;28;20253;-74
2022/03/24 10:37:19;;;;;;;24.33;16.67;;;13.10;99.90;;;;;;5036008;28;20183;-75
2022/03/24 10:40:10;;;;;;;31.00;17.90;;;13.20;99.90;;;;;;5032983;28;20261;-75
2022/03/24 10:42:59;;;;;;;25.67;16.87;;;13.40;99.90;;;;;;5047056;28;20212;-75
2022/03/24 10:45:43;;;;;;;23.13;15.50;;;13.50;99.90;;;;;;5028082;28;20748;-75
2022/03/24 10:48:27;;;;;;;28.77;17.00;;;13.50;99.90;;;;;;5036105;28;20230;-75
2022/03/24 10:51:11;;;;;;;27.97;16.27;;;13.60;99.90;;;;;;5036239;28;20262;-75
2022/03/24 10:54:30;;;;;;;24.40;15.53;;;13.70;99.90;;;;;;5032654;28;20272;-75
2022/03/24 10:57:16;;;;;;;29.30;15.70;;;13.80;99.90;;;;;;5024534;28;20194;-75
2022/03/24 11:00:04;;;;;;;31.67;16.07;;;13.80;99.90;;;;;;5032921;28;20321;-75
2022/03/24 11:02:48;;;;;;;26.57;16.77;;;13.80;99.90;;;;;;5033726;28;20322;-74
2022/03/24 11:05:32;;;;;;;25.63;15.63;;;13.90;99.90;;;;;;5031074;28;20258;-75
2022/03/24 11:08:17;;;;;;;26.30;16.93;;;13.90;99.90;;;;;;5035804;28;20589;-75
2022/03/24 11:11:07;;;;;;;26.80;15.77;;;14.00;99.90;;;;;;5025000;28;20207;-75
2022/03/24 11:13:52;;;;;;;23.80;15.67;;;14.00;99.90;;;;;;5030681;28;20649;-75
2022/03/24 11:16:37;;;;;;;24.97;15.90;;;14.10;99.90;;;;;;5051746;28;20186;-75
2022/03/24 11:19:21;;;;;;;29.30;16.53;;;14.10;99.90;;;;;;5044733;28;20211;-75
2022/03/24 11:22:11;;;;;;;22.77;15.87;;;14.20;99.90;;;;;;5031700;28;20198;-75
2022/03/24 11:24:56;;;;;;;24.47;14.90;;;14.20;99.90;;;;;;5037335;28;20199;-75
2022/03/24 11:27:41;;;;;;;27.77;15.47;;;14.30;99.90;;;;;;5038101;28;20183;-74
2022/03/24 11:30:25;;;;;;;24.97;14.97;;;14.30;99.90;;;;;;5053459;28;20205;-74
2022/03/24 11:33:10;;;;;;;26.60;14.97;;;14.30;99.90;;;;;;5035522;28;20199;-74
2022/03/24 11:35:56;;;;;;;23.20;15.03;;;14.30;99.90;;;;;;5034462;28;20229;-74
2022/03/24 11:38:46;;;;;;;21.30;14.17;;;14.30;99.90;;;;;;5034245;28;20234;-74
2022/03/24 11:41:40;;;;;;;22.17;14.83;;;14.40;99.90;;;;;;5033914;28;20183;-74
2022/03/24 11:44:40;;;;;;;23.70;14.30;;;14.40;99.90;;;;;;5044413;28;20279;-75
2022/03/24 11:47:25;;;;;;;23.53;13.53;;;14.40;99.90;;;;;;5027690;28;20182;-75
2022/03/24 11:50:10;;;;;;;23.37;14.47;;;14.50;99.90;;;;;;5033146;28;20226;-75
2022/03/24 11:53:13;;;;;;;20.80;12.77;;;14.50;99.90;;;;;;5022486;28;20646;-75
2022/03/24 11:56:01;;;;;;;19.70;12.10;;;14.50;99.90;;;;;;5031253;28;20183;-74
2022/03/24 11:58:57;;;;;;;18.53;13.03;;;14.50;99.90;;;;;;5038756;28;20211;-74
2022/03/24 12:01:42;;;;;;;21.00;14.40;;;14.50;99.90;;;;;;5032020;28;20200;-74
2022/03/24 12:04:43;;;;;;;19.60;12.10;;;14.50;99.90;;;;;;5020996;28;20211;-75
2022/03/24 12:07:29;;;;;;;23.87;13.53;;;14.60;99.90;;;;;;5013374;28;20176;-74
2022/03/24 12:10:16;;;;;;;21.03;13.13;;;14.60;99.90;;;;;;5027946;28;20238;-75
2022/03/24 12:13:19;;;;;;;18.50;13.13;;;14.70;99.90;;;;;;5024596;28;20535;-75
2022/03/24 12:16:14;;;;;;;20.57;13.67;;;14.70;99.90;;;;;;5030422;28;20170;-75
2022/03/24 12:18:58;;;;;;;23.30;14.27;;;14.80;99.90;;;;;;5031408;28;20195;-75
2022/03/24 12:21:42;;;;;;;20.97;13.33;;;14.80;99.90;;;;;;5021875;28;20247;-75
2022/03/24 12:24:35;;;;;;;22.13;13.17;;;14.90;99.90;;;;;;5029624;28;20266;-75
2022/03/24 12:27:20;;;;;;;23.97;14.50;;;14.90;99.90;;;;;;5020782;28;20200;-75
2022/03/24 12:30:16;;;;;;;22.00;13.60;;;15.00;99.90;;;;;;5030030;28;20206;-75
2022/03/24 12:33:06;;;;;;;19.90;13.43;;;15.00;99.90;;;;;;5033207;28;20196;-75
2022/03/24 12:35:55;;;;;;;21.93;13.77;;;15.00;99.90;;;;;;5035739;28;20187;-74
2022/03/24 12:38:43;;;;;;;23.70;14.03;;;15.00;99.90;;;;;;5022934;28;20211;-75
2022/03/24 12:41:27;;;;;;;20.70;13.13;;;15.10;99.90;;;;;;5022209;28;20249;-74
2022/03/24 12:44:11;;;;;;;20.80;14.13;;;15.20;99.90;;;;;;5030076;28;20212;-75
2022/03/24 12:46:59;;;;;;;24.57;13.67;;;15.20;99.90;;;;;;5022705;28;20251;-75
2022/03/24 12:49:45;;;;;;;21.57;13.03;;;15.20;99.90;;;;;;5023183;28;20266;-74
2022/03/24 12:52:50;;;;;;;20.27;11.93;;;15.30;99.90;;;;;;5026745;28;20565;-75
2022/03/24 12:55:35;;;;;;;19.13;12.37;;;15.30;99.90;;;;;;5023253;28;20191;-76
2022/03/24 12:58:19;;;;;;;27.37;13.50;;;15.30;99.90;;;;;;5023472;28;20210;-75
2022/03/24 13:01:04;;;;;;;18.97;11.60;;;15.30;99.90;;;;;;5021898;28;20361;-75
2022/03/24 13:04:06;;;;;;;19.43;11.73;;;15.20;99.90;;;;;;5027065;28;20238;-75
2022/03/24 13:06:51;;;;;;;18.67;11.20;;;15.20;99.90;;;;;;5027378;28;20766;-75
2022/03/24 13:09:35;;;;;;;22.30;12.53;;;15.20;99.90;;;;;;5029796;28;20266;-75
2022/03/24 13:12:27;;;;;;;21.33;11.47;;;15.30;99.90;;;;;;5022454;28;20349;-74
2022/03/24 13:15:27;;;;;;;21.47;11.57;;;15.30;99.90;;;;;;5024326;28;20202;-75
2022/03/24 13:18:14;;;;;;;21.37;13.50;;;15.20;99.90;;;;;;5025371;28;20270;-74
2022/03/24 13:20:58;;;;;;;23.57;13.27;;;15.20;99.90;;;;;;5023126;28;20214;-75
2022/03/24 13:23:52;;;;;;;22.80;11.83;;;15.20;99.90;;;;;;5021161;28;20667;-74
2022/03/24 13:26:36;;;;;;;22.40;11.60;;;15.30;99.90;;;;;;5022424;28;20192;-74
2022/03/24 13:29:21;;;;;;;20.63;12.80;;;15.30;99.90;;;;;;5025676;28;20214;-75
2022/03/24 13:32:16;;;;;;;21.87;12.93;;;15.30;99.90;;;;;;5027909;28;20235;-74
2022/03/24 13:35:03;;;;;;;22.57;11.97;;;15.30;99.90;;;;;;5023686;28;20195;-75
2022/03/24 13:37:56;;;;;;;19.93;11.93;;;15.40;99.90;;;;;;5022907;28;20659;-74
2022/03/24 13:40:46;;;;;;;24.60;13.10;;;15.40;99.90;;;;;;5026016;28;20227;-74
2022/03/24 13:43:30;;;;;;;25.43;12.87;;;15.50;99.90;;;;;;5029900;28;20280;-74
2022/03/24 13:46:14;;;;;;;19.73;11.10;;;15.50;99.90;;;;;;5025545;28;20729;-74
2022/03/24 13:49:01;;;;;;;23.30;11.13;;;15.60;99.90;;;;;;5026254;28;20187;-74
2022/03/24 13:51:47;;;;;;;24.53;12.20;;;15.60;99.90;;;;;;5022897;28;20222;-74
2022/03/24 13:54:31;;;;;;;20.37;12.83;;;15.70;99.90;;;;;;5017185;28;20194;-75
2022/03/24 13:57:21;;;;;;;24.10;12.27;;;15.70;99.90;;;;;;5019544;28;20195;-74
2022/03/24 14:00:06;;;;;;;21.93;11.47;;;15.60;99.90;;;;;;5026059;28;20215;-74
2022/03/24 14:03:14;;;;;;;21.43;11.73;;;15.70;99.90;;;;;;5025430;28;20202;-74
2022/03/24 14:05:58;;;;;;;20.33;12.53;;;15.70;99.90;;;;;;5024818;28;20296;-74
2022/03/24 14:08:50;;;;;;;18.87;12.30;;;15.80;99.90;;;;;;5028252;28;20199;-74
2022/03/24 14:11:36;;;;;;;17.70;11.30;;;15.80;99.90;;;;;;5029090;28;20327;-74